createdAt,value
2023-02-23T00:00:32.049Z,2.83
2023-02-23T00:03:01.526Z,2.73
2023-02-23T00:05:29.936Z,2.97
2023-02-23T00:07:57.508Z,3.10
2023-02-23T00:10:30.462Z,2.80
2023-02-23T00:12:59.028Z,3.00
2023-02-23T00:15:29.949Z,2.70
2023-02-23T00:17:58.112Z,2.60
2023-02-23T00:20:27.981Z,2.70
2023-02-23T00:22:58.497Z,3.10
2023-02-23T00:25:26.258Z,2.93
2023-02-23T00:27:54.900Z,2.70
2023-02-23T00:30:23.846Z,2.90
2023-02-23T00:32:52.576Z,2.70
2023-02-23T00:35:20.064Z,3.00
2023-02-23T00:37:48.373Z,2.80
2023-02-23T00:40:16.893Z,2.93
2023-02-23T00:42:45.542Z,2.80
2023-02-23T00:45:14.105Z,2.50
2023-02-23T00:47:42.504Z,2.87
2023-02-23T00:50:14.891Z,3.43
2023-02-23T00:52:43.619Z,3.23
2023-02-23T00:55:12.278Z,3.40
2023-02-23T00:57:40.650Z,3.33
2023-02-23T01:00:20.532Z,2.90
2023-02-23T01:02:49.331Z,2.77
2023-02-23T01:05:16.960Z,2.93
2023-02-23T01:07:47.700Z,3.50
2023-02-23T01:10:21.191Z,3.00
2023-02-23T01:12:49.686Z,3.00
2023-02-23T01:15:17.908Z,2.80
2023-02-23T01:17:45.899Z,2.97
2023-02-23T01:20:20.375Z,3.20
2023-02-23T01:22:49.373Z,3.03
2023-02-23T01:25:17.131Z,2.70
2023-02-23T01:27:44.892Z,3.20
2023-02-23T01:30:14.902Z,2.87
2023-02-23T01:32:43.792Z,2.90
2023-02-23T01:35:12.736Z,3.13
2023-02-23T01:37:41.163Z,2.80
2023-02-23T01:40:29.112Z,2.83
2023-02-23T01:42:58.537Z,2.97
2023-02-23T01:45:37.774Z,3.10
2023-02-23T01:48:16.151Z,2.87
2023-02-23T01:50:52.840Z,2.90
2023-02-23T01:53:23.941Z,2.77
2023-02-23T01:55:55.185Z,2.83
2023-02-23T01:58:24.082Z,2.90
2023-02-23T02:00:55.580Z,3.07
2023-02-23T02:03:35.276Z,3.00
2023-02-23T02:06:03.731Z,2.70
2023-02-23T02:08:32.502Z,3.00
2023-02-23T02:11:00.114Z,2.90
2023-02-23T02:13:29.816Z,2.87
2023-02-23T02:16:06.510Z,3.10
2023-02-23T02:18:43.158Z,2.77
2023-02-23T02:21:29.343Z,3.23
2023-02-23T02:24:15.644Z,2.97
2023-02-23T02:26:58.201Z,3.20
2023-02-23T02:29:43.772Z,2.70
2023-02-23T02:32:11.338Z,3.03
2023-02-23T02:35:01.958Z,2.90
2023-02-23T02:37:29.321Z,3.20
2023-02-23T02:40:18.510Z,2.97
2023-02-23T02:42:45.872Z,2.70
2023-02-23T02:45:59.038Z,2.90
2023-02-23T02:48:42.350Z,2.87
2023-02-23T02:51:18.485Z,3.00
2023-02-23T02:54:06.854Z,2.90
2023-02-23T02:56:40.517Z,2.93
2023-02-23T02:59:31.304Z,3.37
2023-02-23T03:02:17.427Z,2.97
2023-02-23T03:05:03.979Z,3.03
2023-02-23T03:08:00.897Z,3.50
2023-02-23T03:10:53.078Z,2.93
2023-02-23T03:13:39.148Z,2.93
2023-02-23T03:16:28.210Z,3.23
2023-02-23T03:19:35.417Z,3.17
2023-02-23T03:22:26.844Z,3.20
2023-02-23T03:25:25.044Z,3.07
2023-02-23T03:28:22.758Z,3.13
2023-02-23T03:31:32.762Z,3.07
2023-02-23T03:34:31.767Z,3.13
2023-02-23T03:37:23.953Z,2.83
2023-02-23T03:40:22.635Z,3.20
2023-02-23T03:43:11.542Z,3.07
2023-02-23T03:45:57.905Z,3.20
2023-02-23T03:48:45.343Z,3.03
2023-02-23T03:51:32.282Z,3.17
2023-02-23T03:54:36.894Z,3.20
2023-02-23T03:57:24.087Z,3.33
2023-02-23T04:00:13.644Z,3.30
2023-02-23T04:03:01.077Z,3.17
2023-02-23T04:05:48.871Z,3.40
2023-02-23T04:08:38.020Z,3.13
2023-02-23T04:11:43.582Z,3.40
2023-02-23T04:14:15.309Z,3.50
2023-02-23T04:16:43.443Z,3.20
2023-02-23T04:19:10.868Z,3.30
2023-02-23T04:21:38.301Z,3.40
2023-02-23T04:24:05.713Z,3.30
2023-02-23T04:26:33.264Z,3.50
2023-02-23T04:29:00.579Z,3.37
2023-02-23T04:31:28.074Z,3.63
2023-02-23T04:33:55.442Z,3.50
2023-02-23T04:36:24.272Z,3.70
2023-02-23T04:38:51.665Z,3.80
2023-02-23T04:41:20.260Z,3.63
2023-02-23T04:43:47.715Z,3.93
2023-02-23T04:54:17.694Z,3.60
2023-02-23T04:56:45.431Z,3.40
2023-02-23T04:59:13.467Z,3.67
2023-02-23T05:01:41.368Z,3.27
2023-02-23T05:04:09.031Z,3.83
2023-02-23T05:06:36.823Z,3.37
2023-02-23T05:09:06.382Z,3.37
2023-02-23T05:11:34.286Z,3.67
2023-02-23T05:14:02.038Z,3.63
2023-02-23T05:16:29.781Z,3.33
2023-02-23T05:18:57.803Z,3.60
2023-02-23T05:21:25.535Z,3.43
2023-02-23T05:23:53.257Z,3.63
2023-02-23T05:26:21.392Z,3.87
2023-02-23T05:28:49.083Z,3.90
2023-02-23T05:31:17.694Z,3.60
2023-02-23T05:33:45.976Z,3.73
2023-02-23T05:36:17.741Z,3.83
2023-02-23T05:38:46.232Z,3.50
2023-02-23T05:41:15.208Z,3.50
2023-02-23T05:43:43.059Z,3.20
2023-02-23T05:46:11.729Z,4.20
2023-02-23T05:48:39.827Z,3.77
2023-02-23T05:51:08.737Z,3.97
2023-02-23T05:53:36.581Z,3.77
2023-02-23T05:56:08.871Z,4.27
2023-02-23T05:58:36.639Z,3.97
2023-02-23T06:01:04.895Z,4.30
2023-02-23T06:03:32.687Z,4.20
2023-02-23T06:06:00.497Z,4.23
2023-02-23T06:08:28.632Z,4.20
2023-02-23T06:10:56.416Z,4.43
2023-02-23T06:13:24.186Z,4.13
2023-02-23T06:15:51.921Z,4.10
2023-02-23T06:18:20.720Z,4.47
2023-02-23T06:20:48.959Z,4.20
2023-02-23T06:23:16.664Z,3.90
2023-02-23T06:25:44.652Z,4.13
2023-02-23T06:28:12.540Z,4.33
2023-02-23T06:30:40.835Z,4.57
2023-02-23T06:33:08.823Z,4.07
2023-02-23T06:35:39.743Z,4.53
2023-02-23T06:38:07.515Z,4.43
2023-02-23T06:40:35.255Z,4.20
2023-02-23T06:43:03.856Z,4.50
2023-02-23T06:45:32.099Z,4.30
2023-02-23T06:48:00.627Z,4.47
2023-02-23T06:50:29.059Z,4.20
2023-02-23T06:52:57.742Z,4.03
2023-02-23T06:55:25.705Z,5.30
2023-02-23T06:57:54.492Z,4.77
2023-02-23T07:00:22.502Z,4.30
2023-02-23T07:02:50.181Z,4.70
2023-02-23T07:05:18.002Z,4.13
2023-02-23T07:07:45.715Z,4.40
2023-02-23T07:10:13.592Z,3.97
2023-02-23T07:12:41.292Z,4.20
2023-02-23T07:15:10.236Z,3.93
2023-02-23T07:17:38.159Z,4.13
2023-02-23T07:20:06.268Z,4.27
2023-02-23T07:22:34.437Z,4.80
2023-02-23T07:25:02.196Z,4.77
2023-02-23T07:27:30.032Z,4.87
2023-02-23T07:29:57.688Z,5.10
2023-02-23T07:32:25.600Z,5.50
2023-02-23T07:34:54.022Z,5.23
2023-02-23T07:37:22.708Z,4.80
2023-02-23T07:39:50.758Z,5.00
2023-02-23T07:42:18.720Z,4.93
2023-02-23T07:44:46.912Z,4.67
2023-02-23T07:47:14.640Z,5.17
2023-02-23T07:49:42.741Z,4.90
2023-02-23T07:52:10.509Z,5.40
2023-02-23T07:54:38.362Z,6.70
2023-02-23T07:57:06.111Z,5.93
2023-02-23T07:59:33.937Z,5.50
2023-02-23T08:02:01.616Z,6.27
2023-02-23T08:04:29.438Z,6.40
2023-02-23T08:06:57.117Z,6.23
2023-02-23T08:09:24.874Z,5.97
2023-02-23T08:11:52.549Z,6.73
2023-02-23T08:14:23.813Z,6.57
2023-02-23T08:16:51.808Z,6.70
2023-02-23T08:19:23.058Z,6.13
2023-02-23T08:21:51.321Z,6.57
2023-02-23T08:24:19.213Z,7.43
2023-02-23T08:26:46.923Z,6.67
2023-02-23T08:29:14.690Z,7.63
2023-02-23T08:31:42.561Z,6.83
2023-02-23T08:34:10.517Z,6.50
2023-02-23T08:36:38.241Z,6.37
2023-02-23T08:39:07.644Z,6.63
2023-02-23T08:41:35.532Z,6.17
2023-02-23T08:44:03.224Z,7.03
2023-02-23T08:46:31.212Z,7.40
2023-02-23T08:48:59.127Z,7.67
2023-02-23T08:51:26.874Z,7.43
2023-02-23T08:53:55.386Z,7.50
2023-02-23T08:56:25.392Z,8.43
2023-02-23T08:58:53.322Z,8.60
2023-02-23T09:01:22.641Z,9.37
2023-02-23T09:03:50.495Z,10.60
2023-02-23T09:06:20.414Z,9.83
2023-02-23T09:08:48.237Z,11.17
2023-02-23T09:11:16.076Z,10.77
2023-02-23T09:13:44.793Z,10.97
2023-02-23T09:16:12.885Z,10.43
2023-02-23T09:18:40.797Z,11.33
2023-02-23T09:21:10.965Z,11.60
2023-02-23T09:23:39.145Z,11.60
2023-02-23T09:26:07.960Z,11.37
2023-02-23T09:28:38.388Z,11.40
2023-02-23T09:31:07.718Z,12.00
2023-02-23T09:33:35.889Z,11.80
2023-02-23T09:36:12.988Z,13.40
2023-02-23T09:38:41.112Z,12.90
2023-02-23T09:41:20.834Z,12.80
2023-02-23T09:44:08.846Z,12.77
2023-02-23T09:46:59.598Z,13.83
2023-02-23T09:49:30.033Z,13.00
2023-02-23T09:51:59.364Z,13.00
2023-02-23T09:54:29.974Z,12.83
2023-02-23T09:56:58.584Z,13.43
2023-02-23T09:59:29.111Z,13.83
2023-02-23T10:02:05.768Z,14.87
2023-02-23T10:04:36.612Z,15.00
2023-02-23T10:07:23.421Z,14.33
2023-02-23T10:10:09.681Z,14.20
2023-02-23T10:12:56.321Z,15.20
2023-02-23T10:15:36.075Z,15.17
2023-02-23T10:18:40.614Z,14.93
2023-02-23T10:21:17.224Z,16.03
2023-02-23T10:24:06.138Z,15.10
2023-02-23T10:26:52.139Z,15.30
2023-02-23T10:29:38.330Z,15.90
2023-02-23T10:32:22.722Z,16.30
2023-02-23T10:34:53.900Z,15.60
2023-02-23T10:37:21.920Z,16.17
2023-02-23T10:39:51.854Z,16.40
2023-02-23T10:42:30.269Z,15.77
2023-02-23T10:44:58.518Z,15.33
2023-02-23T10:47:33.766Z,17.07
2023-02-23T10:50:01.838Z,17.23
2023-02-23T10:52:41.526Z,17.43
2023-02-23T10:55:22.884Z,17.40
2023-02-23T10:57:52.580Z,15.03
2023-02-23T11:00:33.129Z,17.60
2023-02-23T11:03:04.435Z,16.87
2023-02-23T11:05:32.276Z,17.17
2023-02-23T11:08:12.080Z,17.70
2023-02-23T11:10:40.051Z,17.60
2023-02-23T11:13:22.152Z,17.03
2023-02-23T11:15:51.129Z,17.67
2023-02-23T11:18:26.244Z,18.20
2023-02-23T11:20:54.895Z,17.67
2023-02-23T11:23:29.487Z,16.90
2023-02-23T11:26:00.426Z,17.10
2023-02-23T11:28:38.949Z,16.00
2023-02-23T11:31:19.165Z,17.03
2023-02-23T11:33:47.761Z,16.87
2023-02-23T11:36:29.995Z,17.30
2023-02-23T11:39:02.774Z,18.10
2023-02-23T11:41:33.105Z,17.67
2023-02-23T11:44:04.329Z,17.73
2023-02-23T11:46:36.651Z,18.37
2023-02-23T11:49:08.843Z,16.97
2023-02-23T11:51:38.095Z,17.27
2023-02-23T11:54:06.397Z,17.80
2023-02-23T11:56:35.357Z,17.63
2023-02-23T11:59:07.557Z,16.60
2023-02-23T12:01:44.257Z,16.70
2023-02-23T12:04:30.628Z,17.70
2023-02-23T12:07:17.065Z,16.77
2023-02-23T12:14:08.416Z,16.07
2023-02-23T12:16:48.914Z,16.77
2023-02-23T12:19:23.045Z,16.50
2023-02-23T12:21:53.101Z,18.30
2023-02-23T12:24:38.080Z,17.27
2023-02-23T12:27:30.639Z,16.80
2023-02-23T12:41:34.203Z,17.50
2023-02-23T12:51:27.925Z,17.00
2023-02-23T12:58:28.672Z,19.23
2023-02-23T13:01:12.786Z,19.03
2023-02-23T13:07:05.066Z,18.10
2023-02-23T13:09:56.247Z,17.30
2023-02-23T13:12:29.782Z,18.03
2023-02-23T13:15:42.740Z,17.40
2023-02-23T13:18:24.280Z,15.63
2023-02-23T13:21:00.634Z,17.00
2023-02-23T13:23:48.844Z,18.13
2023-02-23T13:26:41.172Z,17.50
2023-02-23T13:29:23.195Z,18.07
2023-02-23T13:31:50.885Z,11.57
2023-02-23T13:34:27.154Z,17.10
2023-02-23T13:36:56.469Z,17.63
2023-02-23T13:39:50.615Z,17.83
2023-02-23T13:42:45.033Z,16.93
2023-02-23T13:45:43.156Z,16.23
2023-02-23T13:48:18.840Z,17.03
2023-02-23T13:50:57.794Z,17.20
2023-02-23T13:53:59.872Z,16.73
2023-02-23T13:56:30.034Z,16.23
2023-02-23T13:59:08.446Z,16.30
2023-02-23T14:01:43.853Z,16.43
2023-02-23T14:04:35.521Z,16.43
2023-02-23T14:07:32.379Z,16.40
2023-02-23T14:10:06.616Z,16.70
2023-02-23T14:12:40.849Z,16.33
2023-02-23T14:15:27.387Z,16.67
2023-02-23T14:18:02.670Z,16.63
2023-02-23T14:20:38.592Z,17.33
2023-02-23T14:23:21.317Z,18.77
2023-02-23T14:26:08.615Z,16.60
2023-02-23T14:28:39.381Z,17.63
2023-02-23T14:31:12.689Z,16.03
2023-02-23T14:33:42.852Z,17.30
2023-02-23T14:36:22.155Z,16.20
2023-02-23T14:39:00.446Z,15.87
2023-02-23T14:41:34.623Z,15.23
2023-02-23T14:44:05.242Z,15.47
2023-02-23T14:46:35.198Z,14.77
2023-02-23T14:49:11.866Z,13.90
2023-02-23T14:51:42.553Z,13.00
2023-02-23T14:54:15.839Z,15.03
2023-02-23T14:56:48.097Z,13.23
2023-02-23T14:59:23.580Z,12.03
2023-02-23T15:01:51.924Z,12.57
2023-02-23T15:04:25.782Z,12.83
2023-02-23T15:07:00.256Z,12.40
2023-02-23T15:09:35.410Z,12.30
2023-02-23T15:12:12.967Z,12.17
2023-02-23T15:14:41.614Z,12.33
2023-02-23T15:17:15.974Z,12.17
2023-02-23T15:19:45.019Z,11.47
2023-02-23T15:22:32.611Z,12.17
2023-02-23T15:25:01.567Z,11.47
2023-02-23T15:27:45.443Z,11.73
2023-02-23T15:30:23.016Z,10.70
2023-02-23T15:33:03.242Z,11.33
2023-02-23T15:35:31.365Z,11.93
2023-02-23T15:38:11.437Z,11.50
2023-02-23T15:40:45.973Z,11.40
2023-02-23T15:43:13.229Z,10.60
2023-02-23T15:45:50.081Z,11.37
2023-02-23T15:48:22.955Z,10.70
2023-02-23T15:50:53.378Z,10.77
2023-02-23T15:53:41.209Z,10.20
2023-02-23T15:56:20.464Z,10.77
2023-02-23T15:58:57.060Z,9.80
2023-02-23T16:01:30.421Z,9.77
2023-02-23T16:04:08.157Z,10.20
2023-02-23T16:06:52.821Z,9.50
2023-02-23T16:09:25.836Z,9.00
2023-02-23T16:12:02.472Z,9.03
2023-02-23T16:14:35.516Z,8.67
2023-02-23T16:17:11.608Z,8.83
2023-02-23T16:19:41.620Z,9.13
2023-02-23T16:22:18.473Z,8.37
2023-02-23T16:24:45.613Z,9.13
2023-02-23T16:27:12.968Z,8.17
2023-02-23T16:29:42.149Z,7.43
2023-02-23T16:32:19.606Z,8.60
2023-02-23T16:34:51.355Z,7.43
2023-02-23T16:37:25.976Z,8.20
2023-02-23T16:39:55.918Z,7.43
2023-02-23T16:42:32.891Z,7.10
2023-02-23T16:45:00.965Z,6.97
2023-02-23T16:47:28.015Z,6.63
2023-02-23T16:49:55.021Z,7.10
2023-02-23T16:52:25.196Z,6.30
2023-02-23T16:54:55.324Z,6.27
2023-02-23T16:57:29.318Z,6.40
2023-02-23T16:59:57.624Z,6.30
2023-02-23T17:02:24.953Z,6.23
2023-02-23T17:04:52.922Z,6.33
2023-02-23T17:07:22.913Z,6.73
2023-02-23T17:09:51.136Z,6.30
2023-02-23T17:12:20.115Z,6.33
2023-02-23T17:14:49.192Z,6.23
2023-02-23T17:17:19.094Z,5.87
2023-02-23T17:19:46.807Z,6.10
2023-02-23T17:22:14.813Z,6.17
2023-02-23T17:24:43.346Z,6.33
2023-02-23T17:27:10.647Z,6.20
2023-02-23T17:29:37.726Z,6.07
2023-02-23T17:32:05.110Z,6.23
2023-02-23T17:34:32.327Z,6.10
2023-02-23T17:36:59.396Z,6.20
2023-02-23T17:39:28.352Z,5.97
2023-02-23T17:41:55.883Z,6.03
2023-02-23T17:44:23.375Z,5.77
2023-02-23T17:46:50.418Z,5.57
2023-02-23T17:49:17.428Z,6.17
2023-02-23T17:51:44.531Z,6.33
2023-02-23T17:54:11.645Z,5.83
2023-02-23T17:56:38.892Z,6.53
2023-02-23T17:59:05.931Z,6.03
2023-02-23T18:01:33.013Z,6.10
2023-02-23T18:04:00.798Z,6.00
2023-02-23T18:06:28.746Z,6.27
2023-02-23T18:08:56.257Z,5.70
2023-02-23T18:11:23.891Z,5.83
2023-02-23T18:13:51.544Z,5.67
2023-02-23T18:16:20.155Z,5.83
2023-02-23T18:18:48.892Z,5.57
2023-02-23T18:21:19.128Z,6.00
2023-02-23T18:23:46.931Z,5.73
2023-02-23T18:26:17.087Z,5.50
2023-02-23T18:28:45.906Z,5.73
2023-02-23T18:31:19.766Z,5.77
2023-02-23T18:33:50.064Z,4.97
2023-02-23T18:36:21.767Z,5.30
2023-02-23T18:38:49.359Z,5.10
2023-02-23T18:41:17.058Z,5.43
2023-02-23T18:43:44.380Z,5.13
2023-02-23T18:46:13.281Z,5.10
2023-02-23T18:48:41.318Z,5.60
2023-02-23T18:51:14.203Z,5.50
2023-02-23T18:53:42.026Z,5.80
2023-02-23T18:56:15.106Z,5.47
2023-02-23T18:58:44.714Z,5.70
2023-02-23T19:01:13.617Z,5.50
2023-02-23T19:03:41.730Z,5.10
2023-02-23T19:06:10.611Z,4.70
2023-02-23T19:08:38.065Z,4.93
2023-02-23T19:11:05.422Z,5.10
2023-02-23T19:13:32.802Z,5.33
2023-02-23T19:16:07.106Z,5.37
2023-02-23T19:18:35.800Z,5.20
2023-02-23T19:21:03.933Z,5.43
2023-02-23T19:23:31.733Z,5.33
2023-02-23T19:26:02.515Z,5.67
2023-02-23T19:28:30.309Z,5.47
2023-02-23T19:31:07.219Z,6.50
2023-02-23T19:33:35.451Z,5.43
2023-02-23T19:36:09.008Z,5.70
2023-02-23T19:38:36.042Z,5.40
2023-02-23T19:41:07.821Z,5.07
2023-02-23T19:43:34.962Z,5.47
2023-02-23T19:46:11.331Z,5.97
2023-02-23T19:48:38.712Z,4.90
2023-02-23T19:51:10.249Z,5.27
2023-02-23T19:53:37.736Z,5.67
2023-02-23T19:56:08.429Z,5.93
2023-02-23T19:58:36.443Z,5.77
2023-02-23T20:01:09.451Z,5.30
2023-02-23T20:03:39.643Z,5.07
2023-02-23T20:06:07.599Z,4.93
2023-02-23T20:08:34.812Z,5.03
2023-02-23T20:11:06.710Z,5.70
2023-02-23T20:13:34.808Z,5.80
2023-02-23T20:16:09.108Z,5.50
2023-02-23T20:18:38.596Z,5.83
2023-02-23T20:21:13.697Z,5.93
2023-02-23T20:23:42.173Z,6.53
2023-02-23T20:26:12.256Z,5.80
2023-02-23T20:28:40.432Z,5.50
2023-02-23T20:31:26.602Z,5.37
2023-02-23T20:33:56.163Z,5.40
2023-02-23T20:36:24.311Z,5.77
2023-02-23T20:38:51.829Z,5.97
2023-02-23T20:41:20.255Z,6.33
2023-02-23T20:43:47.752Z,6.30
2023-02-23T20:46:17.277Z,6.13
2023-02-23T20:48:44.670Z,6.93
2023-02-23T20:51:19.106Z,6.17
2023-02-23T20:53:48.740Z,6.50
2023-02-23T20:56:17.626Z,6.23
2023-02-23T20:58:45.252Z,6.50
2023-02-23T21:01:18.501Z,6.30
2023-02-23T21:03:46.395Z,6.33
2023-02-23T21:06:13.550Z,5.33
2023-02-23T21:08:42.327Z,6.40
2023-02-23T21:11:09.395Z,6.20
2023-02-23T21:13:36.985Z,5.50
2023-02-23T21:16:04.228Z,5.43
2023-02-23T21:18:31.844Z,5.63
2023-02-23T21:21:10.039Z,5.50
2023-02-23T21:23:44.990Z,5.77
2023-02-23T21:26:16.022Z,5.80
2023-02-23T21:28:46.621Z,5.83
2023-02-23T21:31:15.347Z,5.83
2023-02-23T21:33:44.017Z,5.97
2023-02-23T21:36:12.654Z,6.13
2023-02-23T21:38:42.185Z,6.50
2023-02-23T21:41:10.366Z,7.23
2023-02-23T21:43:38.857Z,6.20
2023-02-23T21:46:24.823Z,6.37
2023-02-23T21:48:52.026Z,6.47
2023-02-23T21:51:19.683Z,6.33
2023-02-23T21:53:47.094Z,6.23
2023-02-23T21:56:17.045Z,6.27
2023-02-23T21:58:47.545Z,6.30
2023-02-23T22:01:17.142Z,6.40
2023-02-23T22:03:45.899Z,6.23
2023-02-23T22:06:36.061Z,6.43
2023-02-23T22:09:05.219Z,6.10
2023-02-23T22:11:37.397Z,6.60
2023-02-23T22:14:10.224Z,6.77
2023-02-23T22:16:41.856Z,7.00
2023-02-23T22:19:09.581Z,7.53
2023-02-23T22:21:38.858Z,7.10
2023-02-23T22:24:06.685Z,7.73
2023-02-23T22:26:36.098Z,7.20
2023-02-23T22:29:04.383Z,6.07
2023-02-23T22:31:31.709Z,7.00
2023-02-23T22:33:58.821Z,6.57
2023-02-23T22:36:25.906Z,6.70
2023-02-23T22:38:52.872Z,6.50
2023-02-23T22:41:20.187Z,6.37
2023-02-23T22:43:47.687Z,6.77
2023-02-23T22:46:16.505Z,6.07
2023-02-23T22:48:45.050Z,6.50
2023-02-23T22:51:14.165Z,6.13
2023-02-23T22:53:41.770Z,6.50
2023-02-23T22:56:09.853Z,6.50
2023-02-23T22:58:37.134Z,6.10
2023-02-23T23:01:06.196Z,6.80
2023-02-23T23:03:40.840Z,7.17
2023-02-23T23:06:10.234Z,7.43
2023-02-23T23:08:40.777Z,6.43
2023-02-23T23:11:11.169Z,7.10
2023-02-23T23:13:44.859Z,7.13
2023-02-23T23:16:25.553Z,7.47
2023-02-23T23:19:12.303Z,7.07
2023-02-23T23:21:41.617Z,7.00
2023-02-23T23:24:13.469Z,7.20
2023-02-23T23:26:42.968Z,9.30
2023-02-23T23:29:12.969Z,10.53
2023-02-23T23:31:45.427Z,8.33
2023-02-23T23:34:14.003Z,7.57
2023-02-23T23:36:46.090Z,9.23
2023-02-23T23:39:16.457Z,10.07
2023-02-23T23:41:46.490Z,10.23
2023-02-23T23:44:16.713Z,11.43
2023-02-23T23:46:45.098Z,10.30
2023-02-23T23:49:16.027Z,9.90
2023-02-23T23:51:50.293Z,9.27
2023-02-23T23:54:22.965Z,9.40
2023-02-23T23:56:50.863Z,8.93
2023-02-23T23:59:21.423Z,9.03
